createdAt,value
2018-08-12T00:00:17.096Z,13.49
2018-08-12T00:01:17.079Z,13.49
2018-08-12T00:02:17.122Z,13.55
2018-08-12T00:03:17.056Z,13.55
2018-08-12T00:04:17.047Z,13.52
2018-08-12T00:05:17.030Z,13.55
2018-08-12T00:06:17.018Z,13.62
2018-08-12T00:07:17.052Z,13.60
2018-08-12T00:08:17.002Z,13.57
2018-08-12T00:09:17.030Z,13.61
2018-08-12T00:10:16.978Z,13.54
2018-08-12T00:11:16.966Z,13.64
2018-08-12T00:12:16.950Z,13.71
2018-08-12T00:13:16.974Z,13.68
2018-08-12T00:14:16.926Z,13.58
2018-08-12T00:15:16.969Z,13.65
2018-08-12T00:16:16.911Z,13.65
2018-08-12T00:17:16.891Z,13.68
2018-08-12T00:18:16.905Z,13.55
2018-08-12T00:19:16.870Z,13.67
2018-08-12T00:20:16.883Z,13.57
2018-08-12T00:21:16.844Z,13.58
2018-08-12T00:22:16.831Z,13.61
2018-08-12T00:23:16.819Z,13.64
2018-08-12T00:24:16.845Z,13.58
2018-08-12T00:25:16.794Z,13.55
2018-08-12T00:26:16.781Z,13.60
2018-08-12T00:27:16.771Z,13.52
2018-08-12T00:28:16.762Z,13.47
2018-08-12T00:29:16.795Z,13.54
2018-08-12T00:30:16.749Z,13.54
2018-08-12T00:31:16.728Z,13.57
2018-08-12T00:32:16.716Z,13.57
2018-08-12T00:33:16.711Z,13.45
2018-08-12T00:34:16.747Z,13.57
2018-08-12T00:35:16.685Z,13.52
2018-08-12T00:36:16.681Z,13.52
2018-08-12T00:37:16.666Z,13.50
2018-08-12T00:38:16.652Z,13.43
2018-08-12T00:39:16.685Z,13.47
2018-08-12T00:40:16.632Z,13.45
2018-08-12T00:41:16.627Z,13.37
2018-08-12T00:42:16.621Z,13.46
2018-08-12T00:43:16.608Z,13.49
2018-08-12T00:44:16.616Z,13.46
2018-08-12T00:45:16.575Z,13.45
2018-08-12T00:46:16.560Z,13.52
2018-08-12T00:47:16.558Z,13.49
2018-08-12T00:48:16.536Z,13.49
2018-08-12T00:49:16.571Z,13.43
2018-08-12T00:50:16.514Z,13.40
2018-08-12T00:51:16.501Z,13.37
2018-08-12T00:52:16.501Z,13.43
2018-08-12T00:53:16.486Z,13.30
2018-08-12T00:54:25.905Z,13.42
2018-08-12T00:55:16.491Z,13.42
2018-08-12T00:56:16.443Z,13.33
2018-08-12T00:57:16.427Z,13.39
2018-08-12T00:58:16.423Z,13.39
2018-08-12T00:59:16.410Z,13.36
2018-08-12T01:00:16.437Z,13.37
2018-08-12T01:01:16.385Z,13.30
2018-08-12T01:02:16.376Z,13.42
2018-08-12T01:03:16.369Z,13.37
2018-08-12T01:04:16.362Z,13.37
2018-08-12T01:05:16.383Z,13.31
2018-08-12T01:06:16.373Z,13.27
2018-08-12T01:07:16.317Z,13.28
2018-08-12T01:08:16.320Z,13.27
2018-08-12T01:09:16.296Z,13.27
2018-08-12T01:10:16.292Z,13.28
2018-08-12T01:11:16.311Z,13.23
2018-08-12T01:12:16.259Z,13.23
2018-08-12T01:13:16.252Z,13.13
2018-08-12T01:14:16.267Z,13.20
2018-08-12T01:15:16.230Z,13.23
2018-08-12T01:16:16.243Z,13.23
2018-08-12T01:17:16.207Z,13.23
2018-08-12T01:18:16.199Z,13.21
2018-08-12T01:19:16.189Z,13.23
2018-08-12T01:20:16.219Z,13.20
2018-08-12T01:21:16.172Z,13.23
2018-08-12T01:22:16.167Z,13.12
2018-08-12T01:23:16.141Z,13.12
2018-08-12T01:24:16.133Z,13.19
2018-08-12T01:25:16.159Z,13.09
2018-08-12T01:26:16.105Z,13.16
2018-08-12T01:27:16.137Z,13.12
2018-08-12T01:28:16.092Z,13.05
2018-08-12T01:29:16.076Z,13.12
2018-08-12T01:30:23.916Z,13.12
2018-08-12T01:31:16.058Z,13.23
2018-08-12T01:32:18.954Z,13.11
2018-08-12T01:33:16.579Z,13.21
2018-08-12T01:34:16.048Z,13.28
2018-08-12T01:35:16.420Z,13.20
2018-08-12T01:36:16.602Z,13.16
2018-08-12T01:37:19.099Z,13.27
2018-08-12T01:38:16.553Z,13.26
2018-08-12T01:39:15.971Z,13.20
2018-08-12T01:40:15.957Z,13.20
2018-08-12T01:41:15.949Z,13.23
2018-08-12T01:42:15.933Z,13.21
2018-08-12T01:43:15.961Z,13.19
2018-08-12T01:44:15.915Z,13.20
2018-08-12T01:45:15.899Z,13.23
2018-08-12T01:46:15.884Z,13.21
2018-08-12T01:47:15.883Z,13.16
2018-08-12T01:48:24.974Z,13.23
2018-08-12T01:49:15.843Z,13.26
2018-08-12T01:50:15.840Z,13.16
2018-08-12T01:51:15.861Z,13.21
2018-08-12T01:52:15.806Z,13.17
2018-08-12T01:53:15.802Z,13.20
2018-08-12T01:54:15.815Z,13.12
2018-08-12T01:55:15.779Z,13.16
2018-08-12T01:56:15.773Z,13.08
2018-08-12T01:57:15.749Z,13.09
2018-08-12T01:58:15.795Z,13.03
2018-08-12T01:59:15.729Z,13.12
2018-08-12T02:00:15.722Z,13.19
2018-08-12T02:01:15.706Z,13.05
2018-08-12T02:02:15.698Z,13.09
2018-08-12T02:03:15.723Z,13.09
2018-08-12T02:04:15.674Z,13.06
2018-08-12T02:05:15.670Z,13.08
2018-08-12T02:06:15.651Z,13.05
2018-08-12T02:07:15.645Z,13.01
2018-08-12T02:08:15.663Z,13.02
2018-08-12T02:09:15.613Z,12.99
2018-08-12T02:10:15.609Z,13.03
2018-08-12T02:11:15.611Z,12.93
2018-08-12T02:12:15.621Z,13.06
2018-08-12T02:13:15.589Z,13.03
2018-08-12T02:14:15.557Z,12.98
2018-08-12T02:15:15.601Z,12.98
2018-08-12T02:16:15.535Z,12.95
2018-08-12T02:17:15.565Z,12.98
2018-08-12T02:18:15.528Z,12.98
2018-08-12T02:19:15.509Z,12.94
2018-08-12T02:20:15.505Z,12.93
2018-08-12T02:21:15.492Z,12.98
2018-08-12T02:22:15.515Z,12.93
2018-08-12T02:23:15.472Z,12.86
2018-08-12T02:24:15.460Z,12.87
2018-08-12T02:25:15.457Z,12.94
2018-08-12T02:26:15.463Z,12.88
2018-08-12T02:27:15.425Z,12.93
2018-08-12T02:28:15.421Z,12.86
2018-08-12T02:29:15.408Z,12.84
2018-08-12T02:30:24.521Z,12.86
2018-08-12T02:31:15.378Z,12.81
2018-08-12T02:32:15.370Z,12.86
2018-08-12T02:33:15.361Z,12.81
2018-08-12T02:34:15.343Z,12.78
2018-08-12T02:35:15.338Z,12.78
2018-08-12T02:36:15.373Z,12.75
2018-08-12T02:37:15.315Z,12.73
2018-08-12T02:38:15.304Z,12.75
2018-08-12T02:39:23.001Z,12.75
2018-08-12T02:40:15.277Z,12.65
2018-08-12T02:41:15.304Z,12.72
2018-08-12T02:42:15.281Z,12.72
2018-08-12T02:43:15.244Z,12.65
2018-08-12T02:44:15.230Z,12.62
2018-08-12T02:45:23.032Z,12.58
2018-08-12T02:46:15.213Z,12.61
2018-08-12T02:47:15.227Z,12.62
2018-08-12T02:48:15.184Z,12.55
2018-08-12T02:49:15.169Z,12.62
2018-08-12T02:50:15.157Z,12.51
2018-08-12T02:51:15.159Z,12.47
2018-08-12T02:52:15.161Z,12.50
2018-08-12T02:53:15.127Z,12.54
2018-08-12T02:54:15.115Z,12.47
2018-08-12T02:55:15.099Z,12.43
2018-08-12T02:56:15.091Z,12.53
2018-08-12T02:57:15.118Z,12.39
2018-08-12T02:58:15.105Z,12.44
2018-08-12T02:59:15.053Z,12.39
2018-08-12T03:00:15.045Z,12.45
2018-08-12T03:01:15.037Z,12.43
2018-08-12T03:02:15.065Z,12.44
2018-08-12T03:03:24.085Z,12.39
2018-08-12T03:04:15.009Z,12.39
2018-08-12T03:05:14.991Z,12.51
2018-08-12T03:06:14.977Z,12.39
2018-08-12T03:07:14.979Z,12.48
2018-08-12T03:08:14.993Z,12.43
2018-08-12T03:09:14.945Z,12.53
2018-08-12T03:10:14.937Z,12.48
2018-08-12T03:11:14.921Z,12.53
2018-08-12T03:12:22.614Z,12.53
2018-08-12T03:13:14.936Z,12.55
2018-08-12T03:14:14.897Z,12.53
2018-08-12T03:15:14.886Z,12.55
2018-08-12T03:16:14.877Z,12.57
2018-08-12T03:17:14.864Z,12.55
2018-08-12T03:18:14.890Z,12.63
2018-08-12T03:19:14.842Z,12.62
2018-08-12T03:20:14.826Z,12.62
2018-08-12T03:21:14.815Z,12.57
2018-08-12T03:22:14.854Z,12.68
2018-08-12T03:23:14.834Z,12.63
2018-08-12T03:24:22.644Z,12.73
2018-08-12T03:25:14.773Z,12.68
2018-08-12T03:26:14.763Z,12.75
2018-08-12T03:27:14.758Z,12.69
2018-08-12T03:28:14.771Z,12.78
2018-08-12T03:29:14.776Z,12.80
2018-08-12T03:30:14.842Z,12.83
2018-08-12T03:31:14.704Z,12.78
2018-08-12T03:32:14.696Z,12.76
2018-08-12T03:33:14.680Z,12.78
2018-08-12T03:34:14.717Z,12.80
2018-08-12T03:35:14.662Z,12.81
2018-08-12T03:36:14.645Z,12.88
2018-08-12T03:37:14.639Z,12.81
2018-08-12T03:38:14.634Z,12.86
2018-08-12T03:39:14.653Z,12.93
2018-08-12T03:40:14.601Z,12.98
2018-08-12T03:41:14.633Z,12.91
2018-08-12T03:42:14.575Z,13.01
2018-08-12T03:43:14.563Z,12.98
2018-08-12T03:44:14.557Z,13.05
2018-08-12T03:45:14.537Z,13.02
2018-08-12T03:46:14.575Z,13.03
2018-08-12T03:47:14.519Z,13.03
2018-08-12T03:48:22.167Z,13.01
2018-08-12T03:49:14.493Z,12.99
2018-08-12T03:50:14.531Z,13.03
2018-08-12T03:51:14.466Z,12.99
2018-08-12T03:52:14.469Z,13.02
2018-08-12T03:53:14.489Z,13.02
2018-08-12T03:54:14.443Z,12.95
2018-08-12T03:55:14.427Z,13.06
2018-08-12T03:56:14.424Z,12.99
2018-08-12T03:57:14.407Z,12.93
2018-08-12T03:58:14.436Z,13.02
2018-08-12T03:59:14.386Z,12.95
2018-08-12T04:00:14.371Z,12.99
2018-08-12T04:01:14.360Z,12.99
2018-08-12T04:02:14.376Z,13.05
2018-08-12T04:03:23.720Z,13.02
2018-08-12T04:04:14.351Z,13.01
2018-08-12T04:05:14.322Z,13.05
2018-08-12T04:06:22.220Z,12.98
2018-08-12T04:07:14.301Z,13.02
2018-08-12T04:08:14.290Z,13.03
2018-08-12T04:09:14.308Z,13.06
2018-08-12T04:10:14.272Z,12.99
2018-08-12T04:11:14.284Z,12.98
2018-08-12T04:12:22.264Z,13.06
2018-08-12T04:13:14.238Z,12.99
2018-08-12T04:14:14.218Z,13.01
2018-08-12T04:15:14.248Z,12.99
2018-08-12T04:16:14.204Z,13.02
2018-08-12T04:17:14.186Z,13.02
2018-08-12T04:18:14.182Z,13.03
2018-08-12T04:19:14.170Z,12.98
2018-08-12T04:20:14.187Z,12.98
2018-08-12T04:21:14.142Z,12.87
2018-08-12T04:22:14.163Z,13.01
2018-08-12T04:23:14.111Z,12.91
2018-08-12T04:24:14.099Z,12.94
2018-08-12T04:25:14.139Z,12.94
2018-08-12T04:26:14.074Z,12.99
2018-08-12T04:27:14.067Z,12.98
2018-08-12T04:28:14.062Z,12.99
2018-08-12T04:29:14.046Z,13.03
2018-08-12T04:30:14.065Z,13.06
2018-08-12T04:31:14.031Z,13.05
2018-08-12T04:32:14.087Z,13.06
2018-08-12T04:33:13.997Z,13.09
2018-08-12T04:34:13.993Z,13.05
2018-08-12T04:35:13.979Z,13.11
2018-08-12T04:36:13.965Z,13.13
2018-08-12T04:37:14.001Z,13.20
2018-08-12T04:38:13.943Z,13.16
2018-08-12T04:39:13.934Z,13.21
2018-08-12T04:40:13.942Z,13.20
2018-08-12T04:41:13.922Z,13.27
2018-08-12T04:42:13.948Z,13.24
2018-08-12T04:43:13.897Z,13.24
2018-08-12T04:44:13.877Z,13.31
2018-08-12T04:45:13.879Z,13.36
2018-08-12T04:46:13.861Z,13.39
2018-08-12T04:47:13.882Z,13.45
2018-08-12T04:48:21.798Z,13.52
2018-08-12T04:49:13.827Z,13.49
2018-08-12T04:50:13.822Z,13.52
2018-08-12T04:51:13.805Z,13.64
2018-08-12T04:52:13.831Z,13.61
2018-08-12T04:53:13.828Z,13.55
2018-08-12T04:54:21.349Z,13.70
2018-08-12T04:55:13.761Z,13.64
2018-08-12T04:56:13.751Z,13.67
2018-08-12T04:57:13.769Z,13.75
2018-08-12T04:58:13.723Z,13.62
2018-08-12T04:59:13.729Z,13.70
2018-08-12T05:00:13.701Z,13.79
2018-08-12T05:01:13.691Z,13.78
2018-08-12T05:02:13.717Z,13.71
2018-08-12T05:03:13.667Z,13.71
2018-08-12T05:04:13.655Z,13.71
2018-08-12T05:05:13.655Z,13.85
2018-08-12T05:06:13.625Z,13.79
2018-08-12T05:07:13.645Z,13.85
2018-08-12T05:08:13.607Z,13.76
2018-08-12T05:09:13.593Z,13.79
2018-08-12T05:10:13.588Z,13.91
2018-08-12T05:11:13.574Z,13.86
2018-08-12T05:12:13.582Z,13.83
2018-08-12T05:13:13.547Z,13.82
2018-08-12T05:14:13.561Z,13.85
2018-08-12T05:15:13.524Z,13.80
2018-08-12T05:16:13.517Z,13.83
2018-08-12T05:17:13.498Z,13.91
2018-08-12T05:18:13.482Z,13.98
2018-08-12T05:19:13.498Z,13.97
2018-08-12T05:20:13.464Z,14.16
2018-08-12T05:21:13.450Z,14.22
2018-08-12T05:22:13.440Z,14.31
2018-08-12T05:23:13.431Z,14.34
2018-08-12T05:24:13.440Z,14.33
2018-08-12T05:25:13.423Z,14.36
2018-08-12T05:26:13.396Z,14.45
2018-08-12T05:27:13.391Z,14.61
2018-08-12T05:28:13.365Z,14.58
2018-08-12T05:29:13.403Z,14.68
2018-08-12T05:30:13.350Z,14.74
2018-08-12T05:31:13.424Z,14.70
2018-08-12T05:32:13.335Z,14.85
2018-08-12T05:33:13.311Z,14.82
2018-08-12T05:34:13.348Z,14.79
2018-08-12T05:35:13.307Z,14.87
2018-08-12T05:36:13.418Z,14.92
2018-08-12T05:37:13.269Z,14.85
2018-08-12T05:38:13.267Z,14.87
2018-08-12T05:39:13.301Z,14.89
2018-08-12T05:40:13.237Z,14.90
2018-08-12T05:41:13.233Z,14.92
2018-08-12T05:42:13.224Z,14.96
2018-08-12T05:43:13.206Z,15.00
2018-08-12T05:44:13.229Z,15.10
2018-08-12T05:45:13.185Z,15.02
2018-08-12T05:46:13.178Z,14.94
2018-08-12T05:47:13.163Z,14.92
2018-08-12T05:48:13.187Z,14.96
2018-08-12T05:49:13.173Z,15.05
2018-08-12T05:50:13.129Z,15.04
2018-08-12T05:51:13.128Z,15.07
2018-08-12T05:52:13.107Z,15.12
2018-08-12T05:53:13.129Z,15.17
2018-08-12T05:54:13.079Z,15.17
2018-08-12T05:55:13.076Z,15.15
2018-08-12T05:56:13.057Z,15.14
2018-08-12T05:57:13.070Z,15.14
2018-08-12T05:58:13.106Z,14.97
2018-08-12T05:59:13.025Z,15.10
2018-08-12T06:00:13.067Z,15.14
2018-08-12T06:01:13.010Z,15.18
2018-08-12T06:02:12.991Z,15.12
2018-08-12T06:03:12.985Z,15.10
2018-08-12T06:04:12.967Z,15.14
2018-08-12T06:05:12.991Z,15.19
2018-08-12T06:06:12.962Z,15.26
2018-08-12T06:07:12.956Z,15.36
2018-08-12T06:08:12.921Z,15.41
2018-08-12T06:09:13.117Z,15.36
2018-08-12T06:10:12.939Z,15.41
2018-08-12T06:11:12.887Z,15.52
2018-08-12T06:12:13.264Z,15.51
2018-08-12T06:13:12.885Z,15.60
2018-08-12T06:14:12.853Z,15.59
2018-08-12T06:15:12.901Z,15.63
2018-08-12T06:16:12.832Z,15.65
2018-08-12T06:17:12.864Z,15.81
2018-08-12T06:18:12.819Z,15.80
2018-08-12T06:19:13.065Z,15.87
2018-08-12T06:20:12.794Z,15.81
2018-08-12T06:21:12.805Z,15.98
2018-08-12T06:22:12.816Z,16.18
2018-08-12T06:23:12.760Z,16.22
2018-08-12T06:24:12.753Z,16.41
2018-08-12T06:25:12.727Z,16.50
2018-08-12T06:26:12.717Z,16.57
2018-08-12T06:27:12.773Z,16.77
2018-08-12T06:28:12.689Z,16.80
2018-08-12T06:29:20.338Z,16.74
2018-08-12T06:30:12.675Z,16.76
2018-08-12T06:31:12.659Z,17.07
2018-08-12T06:32:12.698Z,17.23
2018-08-12T06:33:12.651Z,17.44
2018-08-12T06:34:12.630Z,17.94
2018-08-12T06:35:12.633Z,18.48
2018-08-12T06:36:12.608Z,19.05
2018-08-12T06:37:12.649Z,19.44
2018-08-12T06:38:20.392Z,19.78
2018-08-12T06:39:12.579Z,20.10
2018-08-12T06:40:12.574Z,20.29
2018-08-12T06:41:12.562Z,20.30
2018-08-12T06:42:12.590Z,20.24
2018-08-12T06:43:12.529Z,20.03
2018-08-12T06:44:12.536Z,20.03
2018-08-12T06:45:12.512Z,20.17
2018-08-12T06:46:12.525Z,20.18
2018-08-12T06:47:12.525Z,19.87
2018-08-12T06:48:12.532Z,20.08
2018-08-12T06:49:12.462Z,19.64
2018-08-12T06:50:12.473Z,19.77
2018-08-12T06:51:12.448Z,19.55
2018-08-12T06:52:12.460Z,19.35
2018-08-12T06:53:13.642Z,19.37
2018-08-12T06:54:12.402Z,19.09
2018-08-12T06:55:12.781Z,18.58
2018-08-12T06:56:12.502Z,18.37
2018-08-12T06:57:12.668Z,18.27
2018-08-12T06:58:12.464Z,18.13
2018-08-12T06:59:12.372Z,18.15
2018-08-12T07:00:12.334Z,18.33
2018-08-12T07:01:12.601Z,18.55
2018-08-12T07:02:13.460Z,19.19
2018-08-12T07:03:12.509Z,19.77
2018-08-12T07:04:12.307Z,20.19
2018-08-12T07:05:12.333Z,20.70
2018-08-12T07:06:12.388Z,20.29
2018-08-12T07:07:19.960Z,19.81
2018-08-12T07:08:12.344Z,19.77
2018-08-12T07:09:12.449Z,19.74
2018-08-12T07:10:12.304Z,19.67
2018-08-12T07:11:12.220Z,19.96
2018-08-12T07:12:12.223Z,20.18
2018-08-12T07:13:12.174Z,20.24
2018-08-12T07:14:12.267Z,20.34
2018-08-12T07:15:12.165Z,20.46
2018-08-12T07:16:12.140Z,20.86
2018-08-12T07:17:12.133Z,20.80
2018-08-12T07:18:12.131Z,20.88
2018-08-12T07:19:12.165Z,20.77
2018-08-12T07:20:12.107Z,21.25
2018-08-12T07:21:12.088Z,21.43
2018-08-12T07:22:12.078Z,21.88
2018-08-12T07:23:12.065Z,21.92
2018-08-12T07:24:12.097Z,22.34
2018-08-12T07:25:12.061Z,21.74
2018-08-12T07:26:12.040Z,22.16
2018-08-12T07:27:12.019Z,22.18
2018-08-12T07:28:12.007Z,21.85
2018-08-12T07:29:12.025Z,21.14
2018-08-12T07:30:11.988Z,21.11
2018-08-12T07:31:12.007Z,20.78
2018-08-12T07:32:11.969Z,21.17
2018-08-12T07:33:11.944Z,20.70
2018-08-12T07:34:11.939Z,20.04
2018-08-12T07:35:11.927Z,19.62
2018-08-12T07:36:11.951Z,19.23
2018-08-12T07:37:11.903Z,19.01
2018-08-12T07:38:19.907Z,18.96
2018-08-12T07:39:11.933Z,18.86
2018-08-12T07:40:11.881Z,18.71
2018-08-12T07:41:11.868Z,18.73
2018-08-12T07:42:11.853Z,18.81
2018-08-12T07:43:11.843Z,19.19
2018-08-12T07:44:11.873Z,19.27
2018-08-12T07:45:11.823Z,19.62
2018-08-12T07:46:11.809Z,19.74
2018-08-12T07:47:11.811Z,19.74
2018-08-12T07:48:11.792Z,19.64
2018-08-12T07:49:11.806Z,19.78
2018-08-12T07:50:11.775Z,19.82
2018-08-12T07:51:11.792Z,20.03
2018-08-12T07:52:11.745Z,20.32
2018-08-12T07:53:19.448Z,20.32
2018-08-12T07:54:11.721Z,20.77
2018-08-12T07:55:11.717Z,20.59
2018-08-12T07:56:11.752Z,20.52
2018-08-12T07:57:11.690Z,20.03
2018-08-12T07:58:11.685Z,20.02
2018-08-12T07:59:11.668Z,20.22
2018-08-12T08:00:11.656Z,20.37
2018-08-12T08:01:11.674Z,20.32
2018-08-12T08:02:19.495Z,20.30
2018-08-12T08:03:11.622Z,20.44
2018-08-12T08:04:11.615Z,20.33
2018-08-12T08:05:20.038Z,20.03
2018-08-12T08:06:11.601Z,19.99
2018-08-12T08:07:11.571Z,19.87
2018-08-12T08:08:11.589Z,19.92
2018-08-12T08:09:11.541Z,19.87
2018-08-12T08:10:11.528Z,19.89
2018-08-12T08:11:11.564Z,19.85
2018-08-12T08:12:11.521Z,19.49
2018-08-12T08:13:11.542Z,19.44
2018-08-12T08:14:11.546Z,19.44
2018-08-12T08:15:11.470Z,19.48
2018-08-12T08:16:11.463Z,19.48
2018-08-12T08:17:19.033Z,19.55
2018-08-12T08:18:11.443Z,19.59
2018-08-12T08:19:11.472Z,19.60
2018-08-12T08:20:11.434Z,19.55
2018-08-12T08:21:11.462Z,19.62
2018-08-12T08:22:11.400Z,19.84
2018-08-12T08:23:11.415Z,19.85
2018-08-12T08:24:11.383Z,19.94
2018-08-12T08:25:11.456Z,19.82
2018-08-12T08:26:11.451Z,19.57
2018-08-12T08:27:11.345Z,19.41
2018-08-12T08:28:11.335Z,19.42
2018-08-12T08:29:11.340Z,19.47
2018-08-12T08:30:11.308Z,19.59
2018-08-12T08:31:11.345Z,19.60
2018-08-12T08:32:11.330Z,19.64
2018-08-12T08:33:11.280Z,19.75
2018-08-12T08:34:11.323Z,19.96
2018-08-12T08:35:11.248Z,20.19
2018-08-12T08:36:11.232Z,20.15
2018-08-12T08:37:11.267Z,20.21
2018-08-12T08:38:11.298Z,20.19
2018-08-12T08:39:11.203Z,20.07
2018-08-12T08:40:11.215Z,19.94
2018-08-12T08:41:11.177Z,19.85
2018-08-12T08:42:11.219Z,19.72
2018-08-12T08:43:11.159Z,19.96
2018-08-12T08:44:19.069Z,19.93
2018-08-12T08:45:11.138Z,20.34
2018-08-12T08:46:11.126Z,20.21
2018-08-12T08:47:20.616Z,20.34
2018-08-12T08:48:11.144Z,20.68
2018-08-12T08:49:11.090Z,20.40
2018-08-12T08:50:11.074Z,20.73
2018-08-12T08:51:11.078Z,20.85
2018-08-12T08:52:11.073Z,21.04
2018-08-12T08:53:11.086Z,20.74
2018-08-12T08:54:11.029Z,20.78
2018-08-12T08:55:11.027Z,20.58
2018-08-12T08:56:11.041Z,20.42
2018-08-12T08:57:10.999Z,20.59
2018-08-12T08:58:11.034Z,20.56
2018-08-12T08:59:10.977Z,20.55
2018-08-12T09:00:10.975Z,20.37
2018-08-12T09:01:10.987Z,20.34
2018-08-12T09:02:10.945Z,20.39
2018-08-12T09:03:10.976Z,20.56
2018-08-12T09:04:10.988Z,20.86
2018-08-12T09:05:10.918Z,20.88
2018-08-12T09:06:10.926Z,20.88
2018-08-12T09:07:10.899Z,20.77
2018-08-12T09:08:11.062Z,20.63
2018-08-12T09:09:11.186Z,21.03
2018-08-12T09:10:10.853Z,21.22
2018-08-12T09:11:10.853Z,21.30
2018-08-12T09:12:10.839Z,21.50
2018-08-12T09:13:10.824Z,21.84
2018-08-12T09:14:10.850Z,22.18
2018-08-12T09:15:10.853Z,22.61
2018-08-12T09:16:10.805Z,22.88
2018-08-12T09:17:10.783Z,23.51
2018-08-12T09:18:10.801Z,23.67
2018-08-12T09:19:10.765Z,23.73
2018-08-12T09:20:10.787Z,23.95
2018-08-12T09:21:10.741Z,23.91
2018-08-12T09:22:10.727Z,22.70
2018-08-12T09:23:10.721Z,22.55
2018-08-12T09:24:10.695Z,23.25
2018-08-12T09:25:10.731Z,23.73
2018-08-12T09:26:10.685Z,24.24
2018-08-12T09:27:10.793Z,24.66
2018-08-12T09:28:10.661Z,24.89
2018-08-12T09:29:10.673Z,25.15
2018-08-12T09:30:10.823Z,25.29
2018-08-12T09:31:10.617Z,25.12
2018-08-12T09:32:18.645Z,24.99
2018-08-12T09:33:10.589Z,25.21
2018-08-12T09:34:10.578Z,25.91
2018-08-12T09:35:10.622Z,26.39
2018-08-12T09:36:10.564Z,26.91
2018-08-12T09:37:10.549Z,27.22
2018-08-12T09:38:10.550Z,27.30
2018-08-12T09:39:10.521Z,27.43
2018-08-12T09:40:10.550Z,27.55
2018-08-12T09:41:10.554Z,27.79
2018-08-12T09:42:10.497Z,27.68
2018-08-12T09:43:10.568Z,27.90
2018-08-12T09:44:10.466Z,28.23
2018-08-12T09:45:10.475Z,28.01
2018-08-12T09:46:10.530Z,27.76
2018-08-12T09:47:10.562Z,28.10
2018-08-12T09:48:10.429Z,28.00
2018-08-12T09:49:10.437Z,28.19
2018-08-12T09:50:10.406Z,28.30
2018-08-12T09:51:10.441Z,27.78
2018-08-12T09:52:10.382Z,27.29
2018-08-12T09:53:10.408Z,27.50
2018-08-12T09:54:10.370Z,27.88
2018-08-12T09:55:10.367Z,27.63
2018-08-12T09:56:10.347Z,27.93
2018-08-12T09:57:10.342Z,27.88
2018-08-12T09:58:10.384Z,27.34
2018-08-12T09:59:10.309Z,27.33
2018-08-12T10:00:10.333Z,27.35
2018-08-12T10:01:10.317Z,27.73
2018-08-12T10:02:10.466Z,27.35
2018-08-12T10:03:10.346Z,27.67
2018-08-12T10:04:10.436Z,27.33
2018-08-12T10:05:10.283Z,27.48
2018-08-12T10:06:10.313Z,27.28
2018-08-12T10:07:10.292Z,26.97
2018-08-12T10:08:10.321Z,27.30
2018-08-12T10:09:10.277Z,27.79
2018-08-12T10:10:10.287Z,28.09
2018-08-12T10:11:18.174Z,28.65
2018-08-12T10:12:10.187Z,28.57
2018-08-12T10:13:10.225Z,29.02
2018-08-12T10:14:10.159Z,28.87
2018-08-12T10:15:10.156Z,29.15
2018-08-12T10:16:10.165Z,29.53
2018-08-12T10:17:10.133Z,29.55
2018-08-12T10:18:10.166Z,29.18
2018-08-12T10:19:10.116Z,28.96
2018-08-12T10:20:10.101Z,29.24
2018-08-12T10:21:10.083Z,29.59
2018-08-12T10:22:10.085Z,29.95
2018-08-12T10:23:10.105Z,30.40
2018-08-12T10:24:10.099Z,30.95
2018-08-12T10:25:10.051Z,31.29
2018-08-12T10:26:10.062Z,31.22
2018-08-12T10:27:10.028Z,30.36
2018-08-12T10:28:10.074Z,29.28
2018-08-12T10:29:17.774Z,28.86
2018-08-12T10:30:09.998Z,29.37
2018-08-12T10:31:09.991Z,29.79
2018-08-12T10:32:09.983Z,30.21
2018-08-12T10:33:10.013Z,30.44
2018-08-12T10:34:09.992Z,29.74
2018-08-12T10:35:09.956Z,29.22
2018-08-12T10:36:09.917Z,29.37
2018-08-12T10:37:09.929Z,29.69
2018-08-12T10:38:09.941Z,30.18
2018-08-12T10:39:09.918Z,30.10
2018-08-12T10:40:09.877Z,29.69
2018-08-12T10:41:19.288Z,28.75
2018-08-12T10:42:09.866Z,28.97
2018-08-12T10:43:09.844Z,29.50
2018-08-12T10:44:18.377Z,29.55
2018-08-12T10:45:09.827Z,29.64
2018-08-12T10:46:09.817Z,29.86
2018-08-12T10:47:09.823Z,29.86
2018-08-12T10:48:09.796Z,29.84
2018-08-12T10:49:09.827Z,30.01
2018-08-12T10:50:17.322Z,30.51
2018-08-12T10:51:09.767Z,30.48
2018-08-12T10:52:09.787Z,30.29
2018-08-12T10:53:17.354Z,30.29
2018-08-12T10:54:09.771Z,30.62
2018-08-12T10:55:09.723Z,30.44
2018-08-12T10:56:09.717Z,30.55
2018-08-12T10:57:09.706Z,30.89
2018-08-12T10:58:09.737Z,30.58
2018-08-12T10:59:09.699Z,29.92
2018-08-12T11:00:09.715Z,30.55
2018-08-12T11:01:09.697Z,30.92
2018-08-12T11:02:09.673Z,30.32
2018-08-12T11:03:09.717Z,28.41
2018-08-12T11:04:09.745Z,28.34
2018-08-12T11:05:17.405Z,29.50
2018-08-12T11:06:09.625Z,30.32
2018-08-12T11:07:09.614Z,30.78
2018-08-12T11:08:20.479Z,30.63
2018-08-12T11:09:09.649Z,30.69
2018-08-12T11:10:09.579Z,30.92
2018-08-12T11:11:09.588Z,30.01
2018-08-12T11:12:09.563Z,28.77
2018-08-12T11:13:09.587Z,28.27
2018-08-12T11:14:09.572Z,28.27
2018-08-12T11:15:09.889Z,28.04
2018-08-12T11:16:09.515Z,28.23
2018-08-12T11:17:09.505Z,28.50
2018-08-12T11:18:09.493Z,28.84
2018-08-12T11:19:09.512Z,27.68
2018-08-12T11:20:09.471Z,26.61
2018-08-12T11:21:09.465Z,26.73
2018-08-12T11:22:09.447Z,26.73
2018-08-12T11:23:09.431Z,25.98
2018-08-12T11:24:09.492Z,25.41
2018-08-12T11:25:09.407Z,25.37
2018-08-12T11:26:09.441Z,27.25
2018-08-12T11:27:09.438Z,28.25
2018-08-12T11:28:09.390Z,28.06
2018-08-12T11:29:09.362Z,27.67
2018-08-12T11:30:09.364Z,27.20
2018-08-12T11:31:09.470Z,27.43
2018-08-12T11:32:09.337Z,27.44
2018-08-12T11:33:09.320Z,26.44
2018-08-12T11:34:09.300Z,25.78
2018-08-12T11:35:09.312Z,26.79
2018-08-12T11:36:09.314Z,27.68
2018-08-12T11:37:09.273Z,27.52
2018-08-12T11:38:09.311Z,27.85
2018-08-12T11:39:09.251Z,26.98
2018-08-12T11:40:09.243Z,26.66
2018-08-12T11:41:09.281Z,26.51
2018-08-12T11:42:09.239Z,26.68
2018-08-12T11:43:09.201Z,25.74
2018-08-12T11:44:09.281Z,25.39
2018-08-12T11:45:09.263Z,25.44
2018-08-12T11:46:09.200Z,26.63
2018-08-12T11:47:17.018Z,26.68
2018-08-12T11:48:09.287Z,26.29
2018-08-12T11:49:09.135Z,25.76
2018-08-12T11:50:09.149Z,26.34
2018-08-12T11:51:09.121Z,26.67
2018-08-12T11:52:09.105Z,27.44
2018-08-12T11:53:18.520Z,28.08
2018-08-12T11:54:09.089Z,27.98
2018-08-12T11:55:09.097Z,28.25
2018-08-12T11:56:09.075Z,28.28
2018-08-12T11:57:09.098Z,28.60
2018-08-12T11:58:09.050Z,28.47
2018-08-12T11:59:18.027Z,27.63
2018-08-12T12:00:09.045Z,27.00
2018-08-12T12:01:09.027Z,26.10
2018-08-12T12:02:09.061Z,25.55
2018-08-12T12:03:08.999Z,25.22
2018-08-12T12:04:08.987Z,24.97
2018-08-12T12:05:09.133Z,25.03
2018-08-12T12:06:08.962Z,24.85
2018-08-12T12:07:08.947Z,24.89
2018-08-12T12:08:08.971Z,24.78
2018-08-12T12:09:08.922Z,24.63
2018-08-12T12:10:08.966Z,25.33
2018-08-12T12:11:08.925Z,25.15
2018-08-12T12:12:08.976Z,24.97
2018-08-12T12:13:08.918Z,25.25
2018-08-12T12:14:08.863Z,25.41
2018-08-12T12:15:08.913Z,26.16
2018-08-12T12:16:08.871Z,27.29
2018-08-12T12:17:08.828Z,27.44
2018-08-12T12:18:08.870Z,27.34
2018-08-12T12:19:08.810Z,27.20
2018-08-12T12:20:08.799Z,26.88
2018-08-12T12:21:08.824Z,26.37
2018-08-12T12:22:08.783Z,26.07
2018-08-12T12:23:08.817Z,25.83
2018-08-12T12:24:08.764Z,25.37
2018-08-12T12:25:08.757Z,25.37
2018-08-12T12:26:08.839Z,25.71
2018-08-12T12:27:08.778Z,25.99
2018-08-12T12:28:08.721Z,26.41
2018-08-12T12:29:08.703Z,26.15
2018-08-12T12:30:08.705Z,25.83
2018-08-12T12:31:08.713Z,25.52
2018-08-12T12:32:08.675Z,25.16
2018-08-12T12:33:08.688Z,24.79
2018-08-12T12:34:08.647Z,24.88
2018-08-12T12:35:08.648Z,25.06
2018-08-12T12:36:08.657Z,25.07
2018-08-12T12:37:08.619Z,24.81
2018-08-12T12:38:08.604Z,24.71
2018-08-12T12:39:08.601Z,24.84
2018-08-12T12:40:08.612Z,24.71
2018-08-12T12:41:18.095Z,24.69
2018-08-12T12:42:08.563Z,24.29
2018-08-12T12:43:08.557Z,24.19
2018-08-12T12:44:08.587Z,24.06
2018-08-12T12:45:08.548Z,24.07
2018-08-12T12:46:08.527Z,23.82
2018-08-12T12:47:17.096Z,23.91
2018-08-12T12:48:08.603Z,24.11
2018-08-12T12:49:11.625Z,24.16
2018-08-12T12:50:08.540Z,24.16
2018-08-12T12:51:08.463Z,23.89
2018-08-12T12:52:08.453Z,24.03